DNGO

Gombe Airport

Gombe, Nigeria
METAR DNGO 161600Z 05009KT 5000 HZ NSC 30/M09 Q1012
Observed Flight Rules
Jan-16 @ 16:00 UTC (3 hours ago) Marginal Visual Flight Rules
Wind Visibility Clouds Conditions
50° at 9 knots 5,005 meters
  • Clear skies
  • Haze
Temperatures Readings
Current 30°C / 86°F
Dewpoint -9°C / 16°F
Humidity 7%
Altimeter 29.88" Hg
Pressure 1011.92 hPa
Elevation 469
METAR DNGO 161600Z 05009KT 5000 HZ NSC 30/M09 Q1012
Observed Flight Rules
Jan-16 @ 16:00 UTC
(3 hours ago)
MVFR
Wind Visibility
50° at 9 knots 5,005 meters
Clouds
  • Clear skies
Conditions
  • Haze
Temperature Dewpoint
30°C / 86°F -9°C / 16°F
Humidity Altimeter Pressure
7% 29.88" Hg 1011.92 hPa